sensor_id;sensor_type;location;lat;lon;timestamp;pressure;altitude;pressure_sealevel;temperature;humidity
56689;BME280;42565;53.342;-1.534;2023-01-31T00:01:11;99665.07;;;6.58;64.02
56689;BME280;42565;53.342;-1.534;2023-01-31T00:03:39;99660.27;;;6.87;62.98
56689;BME280;42565;53.342;-1.534;2023-01-31T00:06:12;99647.18;;;6.25;65.99
56689;BME280;42565;53.342;-1.534;2023-01-31T00:08:39;99639.70;;;6.58;63.84
56689;BME280;42565;53.342;-1.534;2023-01-31T00:11:06;99641.12;;;6.07;65.33
56689;BME280;42565;53.342;-1.534;2023-01-31T00:13:34;99644.61;;;6.55;64.89
56689;BME280;42565;53.342;-1.534;2023-01-31T00:16:02;99638.30;;;6.20;65.99
56689;BME280;42565;53.342;-1.534;2023-01-31T00:18:30;99627.50;;;6.48;65.33
56689;BME280;42565;53.342;-1.534;2023-01-31T00:20:57;99618.74;;;6.31;65.30
56689;BME280;42565;53.342;-1.534;2023-01-31T00:23:24;99604.54;;;6.41;65.04
56689;BME280;42565;53.342;-1.534;2023-01-31T00:25:51;99592.67;;;6.44;65.01
56689;BME280;42565;53.342;-1.534;2023-01-31T00:28:17;99582.39;;;7.05;63.14
56689;BME280;42565;53.342;-1.534;2023-01-31T00:30:44;99578.27;;;7.00;63.09
56689;BME280;42565;53.342;-1.534;2023-01-31T00:33:11;99573.93;;;6.88;64.01
56689;BME280;42565;53.342;-1.534;2023-01-31T00:35:38;99572.69;;;6.30;64.83
56689;BME280;42565;53.342;-1.534;2023-01-31T00:38:05;99569.50;;;6.77;63.76
56689;BME280;42565;53.342;-1.534;2023-01-31T00:40:32;99573.96;;;7.06;63.08
56689;BME280;42565;53.342;-1.534;2023-01-31T00:42:59;99566.39;;;6.32;64.85
56689;BME280;42565;53.342;-1.534;2023-01-31T00:45:26;99568.02;;;7.00;63.67
56689;BME280;42565;53.342;-1.534;2023-01-31T00:47:53;99554.50;;;7.00;62.80
56689;BME280;42565;53.342;-1.534;2023-01-31T00:50:20;99551.92;;;7.34;62.48
56689;BME280;42565;53.342;-1.534;2023-01-31T00:52:46;99547.80;;;7.06;63.37
56689;BME280;42565;53.342;-1.534;2023-01-31T00:55:13;99539.06;;;7.03;63.76
56689;BME280;42565;53.342;-1.534;2023-01-31T00:57:40;99541.26;;;6.62;65.07
56689;BME280;42565;53.342;-1.534;2023-01-31T01:00:09;99525.09;;;6.36;66.75
56689;BME280;42565;53.342;-1.534;2023-01-31T01:02:36;99523.28;;;6.20;65.93
56689;BME280;42565;53.342;-1.534;2023-01-31T01:05:03;99514.38;;;6.68;65.62
56689;BME280;42565;53.342;-1.534;2023-01-31T01:07:30;99516.11;;;5.82;68.28
56689;BME280;42565;53.342;-1.534;2023-01-31T01:09:57;99511.96;;;5.73;68.31
56689;BME280;42565;53.342;-1.534;2023-01-31T01:12:24;99499.81;;;6.02;68.56
56689;BME280;42565;53.342;-1.534;2023-01-31T01:14:51;99490.96;;;5.72;70.46
56689;BME280;42565;53.342;-1.534;2023-01-31T01:17:17;99493.12;;;5.57;69.68
56689;BME280;42565;53.342;-1.534;2023-01-31T01:19:44;99485.81;;;5.92;69.96
56689;BME280;42565;53.342;-1.534;2023-01-31T01:22:11;99485.69;;;5.90;70.09
56689;BME280;42565;53.342;-1.534;2023-01-31T01:24:38;99483.28;;;5.73;70.78
56689;BME280;42565;53.342;-1.534;2023-01-31T01:27:04;99487.91;;;6.30;69.53
56689;BME280;42565;53.342;-1.534;2023-01-31T01:29:31;99491.75;;;6.70;68.45
56689;BME280;42565;53.342;-1.534;2023-01-31T01:31:58;99492.23;;;6.47;68.48
56689;BME280;42565;53.342;-1.534;2023-01-31T01:34:25;99487.58;;;6.34;67.53
56689;BME280;42565;53.342;-1.534;2023-01-31T01:36:51;99491.51;;;6.28;68.04
56689;BME280;42565;53.342;-1.534;2023-01-31T01:39:18;99477.70;;;5.92;69.68
56689;BME280;42565;53.342;-1.534;2023-01-31T01:41:46;99479.71;;;6.13;69.30
56689;BME280;42565;53.342;-1.534;2023-01-31T01:44:48;99475.15;;;6.17;69.99
56689;BME280;42565;53.342;-1.534;2023-01-31T01:47:22;99472.81;;;6.44;69.28
56689;BME280;42565;53.342;-1.534;2023-01-31T01:49:55;99476.65;;;6.37;68.65
56689;BME280;42565;53.342;-1.534;2023-01-31T01:52:25;99472.13;;;6.03;70.30
56689;BME280;42565;53.342;-1.534;2023-01-31T01:54:56;99460.38;;;6.13;70.20
56689;BME280;42565;53.342;-1.534;2023-01-31T01:57:29;99460.66;;;6.45;70.70
56689;BME280;42565;53.342;-1.534;2023-01-31T02:00:03;99465.77;;;5.71;72.59
56689;BME280;42565;53.342;-1.534;2023-01-31T02:02:33;99462.13;;;5.95;72.86
56689;BME280;42565;53.342;-1.534;2023-01-31T02:05:01;99463.85;;;6.00;71.61
56689;BME280;42565;53.342;-1.534;2023-01-31T02:07:29;99471.75;;;6.40;70.46
56689;BME280;42565;53.342;-1.534;2023-01-31T02:10:00;99461.51;;;5.91;71.18
56689;BME280;42565;53.342;-1.534;2023-01-31T02:12:29;99452.41;;;6.44;70.21
56689;BME280;42565;53.342;-1.534;2023-01-31T02:14:58;99451.33;;;6.60;70.53
56689;BME280;42565;53.342;-1.534;2023-01-31T02:17:26;99451.78;;;6.34;72.05
56689;BME280;42565;53.342;-1.534;2023-01-31T02:20:02;99449.04;;;5.99;72.62
56689;BME280;42565;53.342;-1.534;2023-01-31T02:22:35;99443.87;;;6.71;72.36
56689;BME280;42565;53.342;-1.534;2023-01-31T02:26:31;99444.92;;;6.48;72.62
56689;BME280;42565;53.342;-1.534;2023-01-31T02:29:24;99440.72;;;6.40;73.33
56689;BME280;42565;53.342;-1.534;2023-01-31T02:32:44;99442.78;;;6.42;74.57
56689;BME280;42565;53.342;-1.534;2023-01-31T02:35:19;99442.88;;;5.95;78.63
56689;BME280;42565;53.342;-1.534;2023-01-31T02:37:58;99443.80;;;6.55;77.54
56689;BME280;42565;53.342;-1.534;2023-01-31T02:40:35;99441.72;;;6.11;78.52
56689;BME280;42565;53.342;-1.534;2023-01-31T02:43:09;99440.37;;;6.31;78.03
56689;BME280;42565;53.342;-1.534;2023-01-31T02:45:43;99426.80;;;6.26;77.59
56689;BME280;42565;53.342;-1.534;2023-01-31T02:48:19;99415.88;;;6.38;77.47
56689;BME280;42565;53.342;-1.534;2023-01-31T02:50:59;99427.46;;;6.64;76.38
56689;BME280;42565;53.342;-1.534;2023-01-31T02:53:33;99421.33;;;6.19;77.29
56689;BME280;42565;53.342;-1.534;2023-01-31T02:56:05;99422.50;;;6.40;77.86
56689;BME280;42565;53.342;-1.534;2023-01-31T02:58:36;99408.10;;;6.28;78.08
56689;BME280;42565;53.342;-1.534;2023-01-31T03:01:04;99409.64;;;6.52;77.38
56689;BME280;42565;53.342;-1.534;2023-01-31T03:03:35;99403.20;;;7.28;75.17
56689;BME280;42565;53.342;-1.534;2023-01-31T03:07:12;99407.02;;;6.34;78.12
56689;BME280;42565;53.342;-1.534;2023-01-31T03:09:50;99401.27;;;6.23;81.35
56689;BME280;42565;53.342;-1.534;2023-01-31T03:12:35;99400.19;;;6.17;81.48
56689;BME280;42565;53.342;-1.534;2023-01-31T03:15:19;99395.58;;;5.84;83.97
56689;BME280;42565;53.342;-1.534;2023-01-31T03:17:55;99396.21;;;5.98;83.34
56689;BME280;42565;53.342;-1.534;2023-01-31T03:20:30;99388.12;;;6.14;82.97
56689;BME280;42565;53.342;-1.534;2023-01-31T03:23:02;99393.85;;;6.11;83.19
56689;BME280;42565;53.342;-1.534;2023-01-31T03:25:34;99396.98;;;5.62;84.58
56689;BME280;42565;53.342;-1.534;2023-01-31T03:28:06;99389.35;;;5.81;84.74
56689;BME280;42565;53.342;-1.534;2023-01-31T03:30:38;99385.94;;;6.08;83.67
56689;BME280;42565;53.342;-1.534;2023-01-31T03:33:12;99377.33;;;5.50;85.94
56689;BME280;42565;53.342;-1.534;2023-01-31T03:35:42;99372.54;;;5.65;85.75
56689;BME280;42565;53.342;-1.534;2023-01-31T03:38:16;99370.19;;;5.92;84.83
56689;BME280;42565;53.342;-1.534;2023-01-31T03:40:50;99367.81;;;6.23;83.05
56689;BME280;42565;53.342;-1.534;2023-01-31T03:43:24;99377.09;;;6.04;82.68
56689;BME280;42565;53.342;-1.534;2023-01-31T03:45:57;99364.73;;;6.00;83.24
56689;BME280;42565;53.342;-1.534;2023-01-31T03:48:27;99367.67;;;6.30;81.11
56689;BME280;42565;53.342;-1.534;2023-01-31T03:50:59;99371.53;;;6.76;79.16
56689;BME280;42565;53.342;-1.534;2023-01-31T03:53:30;99368.92;;;6.61;79.88
56689;BME280;42565;53.342;-1.534;2023-01-31T03:56:01;99360.20;;;7.04;78.14
56689;BME280;42565;53.342;-1.534;2023-01-31T03:58:33;99355.66;;;6.97;78.46
56689;BME280;42565;53.342;-1.534;2023-01-31T04:01:06;99356.64;;;6.96;77.86
56689;BME280;42565;53.342;-1.534;2023-01-31T04:03:37;99360.67;;;6.23;80.10
56689;BME280;42565;53.342;-1.534;2023-01-31T04:06:06;99353.74;;;6.85;78.25
56689;BME280;42565;53.342;-1.534;2023-01-31T04:08:35;99343.62;;;6.94;77.46
56689;BME280;42565;53.342;-1.534;2023-01-31T04:11:03;99358.12;;;7.20;76.71
56689;BME280;42565;53.342;-1.534;2023-01-31T04:13:31;99350.07;;;6.41;79.00
56689;BME280;42565;53.342;-1.534;2023-01-31T04:15:58;99346.97;;;6.60;79.43
56689;BME280;42565;53.342;-1.534;2023-01-31T04:18:25;99357.81;;;6.59;79.18
56689;BME280;42565;53.342;-1.534;2023-01-31T04:20:53;99359.52;;;6.72;78.71
56689;BME280;42565;53.342;-1.534;2023-01-31T04:23:20;99354.13;;;7.31;76.61
56689;BME280;42565;53.342;-1.534;2023-01-31T04:25:47;99354.16;;;6.92;77.99
56689;BME280;42565;53.342;-1.534;2023-01-31T04:28:14;99350.64;;;7.08;78.80
56689;BME280;42565;53.342;-1.534;2023-01-31T04:30:41;99353.55;;;7.55;78.27
56689;BME280;42565;53.342;-1.534;2023-01-31T04:33:08;99351.97;;;7.30;78.34
56689;BME280;42565;53.342;-1.534;2023-01-31T04:35:35;99355.03;;;7.55;77.96
56689;BME280;42565;53.342;-1.534;2023-01-31T04:38:05;99359.05;;;7.65;78.88
56689;BME280;42565;53.342;-1.534;2023-01-31T04:40:31;99345.73;;;7.83;77.89
56689;BME280;42565;53.342;-1.534;2023-01-31T04:42:58;99351.24;;;7.76;78.95
56689;BME280;42565;53.342;-1.534;2023-01-31T04:45:25;99349.35;;;7.74;78.25
56689;BME280;42565;53.342;-1.534;2023-01-31T04:47:52;99348.63;;;7.43;79.30
56689;BME280;42565;53.342;-1.534;2023-01-31T04:50:18;99347.09;;;7.75;80.35
56689;BME280;42565;53.342;-1.534;2023-01-31T04:52:48;99341.17;;;7.52;81.36
56689;BME280;42565;53.342;-1.534;2023-01-31T04:55:15;99341.15;;;7.07;83.23
56689;BME280;42565;53.342;-1.534;2023-01-31T04:57:43;99338.02;;;7.25;82.11
56689;BME280;42565;53.342;-1.534;2023-01-31T05:00:11;99334.77;;;7.17;83.89
56689;BME280;42565;53.342;-1.534;2023-01-31T05:02:38;99329.61;;;7.04;82.96
56689;BME280;42565;53.342;-1.534;2023-01-31T05:05:07;99326.20;;;7.83;82.08
56689;BME280;42565;53.342;-1.534;2023-01-31T05:07:35;99326.73;;;6.73;85.32
56689;BME280;42565;53.342;-1.534;2023-01-31T05:10:02;99313.09;;;6.33;88.29
56689;BME280;42565;53.342;-1.534;2023-01-31T05:12:29;99308.64;;;6.48;88.57
56689;BME280;42565;53.342;-1.534;2023-01-31T05:14:56;99299.48;;;6.57;88.41
56689;BME280;42565;53.342;-1.534;2023-01-31T05:17:23;99289.05;;;6.72;88.68
56689;BME280;42565;53.342;-1.534;2023-01-31T05:19:49;99301.46;;;6.50;89.27
56689;BME280;42565;53.342;-1.534;2023-01-31T05:22:16;99292.26;;;6.76;88.22
56689;BME280;42565;53.342;-1.534;2023-01-31T05:24:43;99296.49;;;7.10;86.74
56689;BME280;42565;53.342;-1.534;2023-01-31T05:27:10;99290.71;;;6.31;90.25
56689;BME280;42565;53.342;-1.534;2023-01-31T05:29:36;99285.12;;;6.88;89.52
56689;BME280;42565;53.342;-1.534;2023-01-31T05:32:03;99295.95;;;6.29;90.60
56689;BME280;42565;53.342;-1.534;2023-01-31T05:34:31;99301.12;;;6.53;91.15
56689;BME280;42565;53.342;-1.534;2023-01-31T05:36:59;99296.14;;;6.43;92.87
56689;BME280;42565;53.342;-1.534;2023-01-31T05:39:26;99289.62;;;6.41;92.30
56689;BME280;42565;53.342;-1.534;2023-01-31T05:41:53;99285.98;;;6.70;91.71
56689;BME280;42565;53.342;-1.534;2023-01-31T05:44:20;99272.80;;;6.14;93.22
56689;BME280;42565;53.342;-1.534;2023-01-31T05:46:47;99268.05;;;6.49;91.94
56689;BME280;42565;53.342;-1.534;2023-01-31T05:49:15;99262.80;;;6.44;92.46
56689;BME280;42565;53.342;-1.534;2023-01-31T05:51:42;99257.06;;;5.95;93.99
56689;BME280;42565;53.342;-1.534;2023-01-31T05:54:09;99268.35;;;6.32;92.93
56689;BME280;42565;53.342;-1.534;2023-01-31T05:56:37;99237.25;;;5.91;93.61
56689;BME280;42565;53.342;-1.534;2023-01-31T05:59:04;99237.48;;;6.54;94.14
56689;BME280;42565;53.342;-1.534;2023-01-31T06:01:32;99243.66;;;6.22;93.82
56689;BME280;42565;53.342;-1.534;2023-01-31T06:03:59;99244.08;;;5.99;96.00
56689;BME280;42565;53.342;-1.534;2023-01-31T06:06:26;99227.26;;;6.24;95.17
56689;BME280;42565;53.342;-1.534;2023-01-31T06:08:53;99225.89;;;5.95;95.97
56689;BME280;42565;53.342;-1.534;2023-01-31T06:11:21;99230.39;;;6.19;94.52
56689;BME280;42565;53.342;-1.534;2023-01-31T06:13:48;99225.04;;;6.88;93.01
56689;BME280;42565;53.342;-1.534;2023-01-31T06:16:16;99221.36;;;6.15;96.95
56689;BME280;42565;53.342;-1.534;2023-01-31T06:18:43;99222.99;;;6.35;94.32
56689;BME280;42565;53.342;-1.534;2023-01-31T06:21:10;99222.08;;;6.63;93.55
56689;BME280;42565;53.342;-1.534;2023-01-31T06:23:38;99217.86;;;5.91;96.69
56689;BME280;42565;53.342;-1.534;2023-01-31T06:26:05;99224.28;;;6.64;95.74
56689;BME280;42565;53.342;-1.534;2023-01-31T06:28:32;99230.02;;;6.47;94.11
56689;BME280;42565;53.342;-1.534;2023-01-31T06:31:05;99213.96;;;6.54;93.44
56689;BME280;42565;53.342;-1.534;2023-01-31T06:33:32;99218.00;;;5.99;94.50
56689;BME280;42565;53.342;-1.534;2023-01-31T06:35:59;99218.10;;;6.75;91.96
56689;BME280;42565;53.342;-1.534;2023-01-31T06:38:27;99217.04;;;6.53;93.14
56689;BME280;42565;53.342;-1.534;2023-01-31T06:40:54;99220.74;;;6.58;92.61
56689;BME280;42565;53.342;-1.534;2023-01-31T06:43:22;99220.18;;;6.55;93.57
56689;BME280;42565;53.342;-1.534;2023-01-31T06:45:48;99219.80;;;6.38;93.23
56689;BME280;42565;53.342;-1.534;2023-01-31T06:48:16;99217.77;;;6.21;95.89
56689;BME280;42565;53.342;-1.534;2023-01-31T06:50:43;99219.75;;;6.70;93.37
56689;BME280;42565;53.342;-1.534;2023-01-31T06:53:10;99212.90;;;6.66;93.15
56689;BME280;42565;53.342;-1.534;2023-01-31T06:55:37;99220.53;;;6.44;94.61
56689;BME280;42565;53.342;-1.534;2023-01-31T06:58:04;99207.72;;;6.27;95.61
56689;BME280;42565;53.342;-1.534;2023-01-31T07:00:31;99206.33;;;6.24;95.64
56689;BME280;42565;53.342;-1.534;2023-01-31T07:02:58;99219.71;;;5.92;96.16
56689;BME280;42565;53.342;-1.534;2023-01-31T07:05:25;99206.95;;;6.49;94.50
56689;BME280;42565;53.342;-1.534;2023-01-31T07:07:52;99205.68;;;6.58;94.28
56689;BME280;42565;53.342;-1.534;2023-01-31T07:10:20;99213.86;;;6.83;93.23
56689;BME280;42565;53.342;-1.534;2023-01-31T07:12:47;99202.53;;;6.48;93.79
56689;BME280;42565;53.342;-1.534;2023-01-31T07:15:14;99215.41;;;6.21;95.74
56689;BME280;42565;53.342;-1.534;2023-01-31T07:17:42;99207.70;;;6.13;95.84
56689;BME280;42565;53.342;-1.534;2023-01-31T07:20:10;99213.71;;;6.50;95.97
56689;BME280;42565;53.342;-1.534;2023-01-31T07:22:37;99200.49;;;6.13;96.02
56689;BME280;42565;53.342;-1.534;2023-01-31T07:25:04;99197.02;;;6.22;95.20
56689;BME280;42565;53.342;-1.534;2023-01-31T07:27:31;99207.00;;;5.92;96.22
56689;BME280;42565;53.342;-1.534;2023-01-31T07:29:58;99210.30;;;5.83;97.37
56689;BME280;42565;53.342;-1.534;2023-01-31T07:32:28;99202.85;;;6.24;96.79
56689;BME280;42565;53.342;-1.534;2023-01-31T07:34:55;99183.97;;;5.95;98.95
56689;BME280;42565;53.342;-1.534;2023-01-31T07:37:22;99191.96;;;5.88;98.86
56689;BME280;42565;53.342;-1.534;2023-01-31T07:39:49;99193.59;;;6.25;97.60
56689;BME280;42565;53.342;-1.534;2023-01-31T07:42:16;99202.25;;;6.34;96.91
56689;BME280;42565;53.342;-1.534;2023-01-31T07:44:43;99207.46;;;5.97;99.56
56689;BME280;42565;53.342;-1.534;2023-01-31T07:47:11;99208.34;;;6.13;97.20
56689;BME280;42565;53.342;-1.534;2023-01-31T07:49:38;99210.48;;;6.79;94.46
56689;BME280;42565;53.342;-1.534;2023-01-31T07:52:04;99203.03;;;6.24;95.87
56689;BME280;42565;53.342;-1.534;2023-01-31T07:54:32;99200.45;;;6.19;96.32
56689;BME280;42565;53.342;-1.534;2023-01-31T07:56:59;99191.36;;;5.75;98.37
56689;BME280;42565;53.342;-1.534;2023-01-31T07:59:26;99205.22;;;6.70;95.41
56689;BME280;42565;53.342;-1.534;2023-01-31T08:01:58;99213.39;;;6.51;94.75
56689;BME280;42565;53.342;-1.534;2023-01-31T08:04:25;99237.00;;;6.51;93.90
56689;BME280;42565;53.342;-1.534;2023-01-31T08:06:54;99223.43;;;6.42;91.51
56689;BME280;42565;53.342;-1.534;2023-01-31T08:09:22;99222.15;;;6.19;88.40
56689;BME280;42565;53.342;-1.534;2023-01-31T08:11:49;99226.14;;;6.31;86.82
56689;BME280;42565;53.342;-1.534;2023-01-31T08:14:16;99230.95;;;6.32;85.01
56689;BME280;42565;53.342;-1.534;2023-01-31T08:16:43;99215.07;;;6.13;86.33
56689;BME280;42565;53.342;-1.534;2023-01-31T08:19:09;99220.88;;;6.27;85.79
56689;BME280;42565;53.342;-1.534;2023-01-31T08:21:36;99227.64;;;5.83;86.50
56689;BME280;42565;53.342;-1.534;2023-01-31T08:24:03;99237.76;;;6.71;84.72
56689;BME280;42565;53.342;-1.534;2023-01-31T08:26:30;99232.97;;;6.57;84.18
56689;BME280;42565;53.342;-1.534;2023-01-31T08:28:58;99235.24;;;6.30;83.01
56689;BME280;42565;53.342;-1.534;2023-01-31T08:31:26;99245.07;;;6.47;82.72
56689;BME280;42565;53.342;-1.534;2023-01-31T08:33:54;99239.79;;;6.45;82.05
56689;BME280;42565;53.342;-1.534;2023-01-31T08:36:23;99245.63;;;6.48;81.76
56689;BME280;42565;53.342;-1.534;2023-01-31T08:38:52;99236.82;;;6.50;80.35
56689;BME280;42565;53.342;-1.534;2023-01-31T08:41:21;99219.80;;;7.08;78.46
56689;BME280;42565;53.342;-1.534;2023-01-31T08:43:48;99210.41;;;7.09;78.92
56689;BME280;42565;53.342;-1.534;2023-01-31T08:46:16;99199.31;;;7.47;77.96
56689;BME280;42565;53.342;-1.534;2023-01-31T08:48:43;99205.83;;;7.82;73.06
56689;BME280;42565;53.342;-1.534;2023-01-31T08:51:11;99199.77;;;8.31;69.75
56689;BME280;42565;53.342;-1.534;2023-01-31T08:53:40;99205.10;;;8.27;69.96
56689;BME280;42565;53.342;-1.534;2023-01-31T08:56:13;99200.42;;;8.65;69.26
56689;BME280;42565;53.342;-1.534;2023-01-31T08:58:43;99198.58;;;8.19;69.22
56689;BME280;42565;53.342;-1.534;2023-01-31T09:01:12;99194.29;;;7.91;70.09
56689;BME280;42565;53.342;-1.534;2023-01-31T09:03:40;99191.41;;;8.79;65.72
56689;BME280;42565;53.342;-1.534;2023-01-31T09:06:11;99229.61;;;8.94;64.95
56689;BME280;42565;53.342;-1.534;2023-01-31T09:08:38;99202.06;;;9.48;62.55
56689;BME280;42565;53.342;-1.534;2023-01-31T09:11:06;99220.72;;;9.32;60.90
56689;BME280;42565;53.342;-1.534;2023-01-31T09:13:34;99240.83;;;9.50;61.28
56689;BME280;42565;53.342;-1.534;2023-01-31T09:16:03;99233.39;;;9.06;61.09
56689;BME280;42565;53.342;-1.534;2023-01-31T09:18:33;99243.42;;;9.25;63.87
56689;BME280;42565;53.342;-1.534;2023-01-31T09:21:03;99224.72;;;9.31;60.34
56689;BME280;42565;53.342;-1.534;2023-01-31T09:23:30;99236.00;;;8.83;61.90
56689;BME280;42565;53.342;-1.534;2023-01-31T09:25:57;99231.58;;;8.82;61.46
56689;BME280;42565;53.342;-1.534;2023-01-31T09:28:25;99237.62;;;8.47;63.33
56689;BME280;42565;53.342;-1.534;2023-01-31T09:30:52;99226.96;;;8.06;65.71
56689;BME280;42565;53.342;-1.534;2023-01-31T09:33:20;99218.06;;;8.19;64.35
56689;BME280;42565;53.342;-1.534;2023-01-31T09:35:56;99234.45;;;8.73;62.98
56689;BME280;42565;53.342;-1.534;2023-01-31T09:38:23;99247.09;;;9.21;62.10
56689;BME280;42565;53.342;-1.534;2023-01-31T09:40:52;99242.18;;;8.82;60.98
56689;BME280;42565;53.342;-1.534;2023-01-31T09:43:22;99248.57;;;9.15;60.92
56689;BME280;42565;53.342;-1.534;2023-01-31T09:45:53;99253.70;;;9.35;59.82
56689;BME280;42565;53.342;-1.534;2023-01-31T09:48:27;99244.04;;;9.39;59.35
56689;BME280;42565;53.342;-1.534;2023-01-31T09:50:57;99272.59;;;9.72;58.53
56689;BME280;42565;53.342;-1.534;2023-01-31T09:53:31;99262.40;;;10.02;57.45
56689;BME280;42565;53.342;-1.534;2023-01-31T09:56:10;99265.29;;;9.17;57.39
56689;BME280;42565;53.342;-1.534;2023-01-31T09:58:47;99277.84;;;10.07;57.06
56689;BME280;42565;53.342;-1.534;2023-01-31T10:01:22;99269.09;;;10.01;56.63
56689;BME280;42565;53.342;-1.534;2023-01-31T10:04:01;99278.12;;;9.65;55.35
56689;BME280;42565;53.342;-1.534;2023-01-31T10:06:35;99268.76;;;9.92;55.89
56689;BME280;42565;53.342;-1.534;2023-01-31T10:09:13;99269.64;;;10.05;56.70
56689;BME280;42565;53.342;-1.534;2023-01-31T10:11:45;99290.69;;;10.22;56.81
56689;BME280;42565;53.342;-1.534;2023-01-31T10:14:23;99279.37;;;10.09;58.22
56689;BME280;42565;53.342;-1.534;2023-01-31T10:16:59;99276.18;;;9.45;58.55
56689;BME280;42565;53.342;-1.534;2023-01-31T10:19:35;99281.96;;;10.39;57.98
56689;BME280;42565;53.342;-1.534;2023-01-31T10:22:08;99270.07;;;9.58;56.32
56689;BME280;42565;53.342;-1.534;2023-01-31T10:24:41;99271.57;;;10.51;54.78
56689;BME280;42565;53.342;-1.534;2023-01-31T10:27:15;99268.36;;;10.14;55.25
56689;BME280;42565;53.342;-1.534;2023-01-31T10:29:48;99298.98;;;10.43;55.36
56689;BME280;42565;53.342;-1.534;2023-01-31T10:32:23;99293.52;;;10.20;56.31
56689;BME280;42565;53.342;-1.534;2023-01-31T10:34:56;99305.31;;;10.55;55.42
56689;BME280;42565;53.342;-1.534;2023-01-31T10:37:31;99292.90;;;10.19;56.49
56689;BME280;42565;53.342;-1.534;2023-01-31T10:40:03;99307.09;;;9.84;57.57
56689;BME280;42565;53.342;-1.534;2023-01-31T10:42:34;99279.92;;;9.57;58.42
56689;BME280;42565;53.342;-1.534;2023-01-31T10:45:09;99305.24;;;9.60;57.67
56689;BME280;42565;53.342;-1.534;2023-01-31T10:47:48;99290.96;;;10.15;55.99
56689;BME280;42565;53.342;-1.534;2023-01-31T10:50:18;99294.56;;;10.90;53.51
56689;BME280;42565;53.342;-1.534;2023-01-31T10:52:57;99292.66;;;12.10;50.39
56689;BME280;42565;53.342;-1.534;2023-01-31T10:55:40;99292.70;;;12.94;48.13
56689;BME280;42565;53.342;-1.534;2023-01-31T10:58:14;99304.58;;;13.94;45.22
56689;BME280;42565;53.342;-1.534;2023-01-31T11:00:42;99311.95;;;14.33;43.90
56689;BME280;42565;53.342;-1.534;2023-01-31T11:03:11;99315.33;;;13.98;42.65
56689;BME280;42565;53.342;-1.534;2023-01-31T11:05:44;99315.22;;;12.60;45.42
56689;BME280;42565;53.342;-1.534;2023-01-31T11:08:24;99320.19;;;12.53;45.49
56689;BME280;42565;53.342;-1.534;2023-01-31T11:10:56;99327.27;;;12.85;44.37
56689;BME280;42565;53.342;-1.534;2023-01-31T11:13:23;99318.70;;;12.24;45.28
56689;BME280;42565;53.342;-1.534;2023-01-31T11:15:52;99342.11;;;11.70;45.95
56689;BME280;42565;53.342;-1.534;2023-01-31T11:18:27;99350.56;;;11.68;47.11
56689;BME280;42565;53.342;-1.534;2023-01-31T11:20:57;99330.66;;;12.04;45.79
56689;BME280;42565;53.342;-1.534;2023-01-31T11:23:28;99326.49;;;12.55;45.12
56689;BME280;42565;53.342;-1.534;2023-01-31T11:25:56;99333.08;;;12.20;45.14
56689;BME280;42565;53.342;-1.534;2023-01-31T11:28:32;99324.12;;;11.98;45.86
56689;BME280;42565;53.342;-1.534;2023-01-31T11:31:02;99324.18;;;12.13;43.51
56689;BME280;42565;53.342;-1.534;2023-01-31T11:33:39;99317.63;;;12.73;43.29
56689;BME280;42565;53.342;-1.534;2023-01-31T11:36:08;99319.06;;;13.43;41.47
56689;BME280;42565;53.342;-1.534;2023-01-31T11:38:36;99333.16;;;13.47;41.67
56689;BME280;42565;53.342;-1.534;2023-01-31T11:41:26;99318.41;;;13.93;40.21
56689;BME280;42565;53.342;-1.534;2023-01-31T11:44:13;99323.82;;;13.33;41.71
56689;BME280;42565;53.342;-1.534;2023-01-31T11:46:46;99318.21;;;12.14;42.45
56689;BME280;42565;53.342;-1.534;2023-01-31T11:49:21;99325.65;;;11.88;43.78
56689;BME280;42565;53.342;-1.534;2023-01-31T11:51:50;99335.65;;;11.96;44.29
56689;BME280;42565;53.342;-1.534;2023-01-31T11:54:20;99331.02;;;13.04;43.82
56689;BME280;42565;53.342;-1.534;2023-01-31T11:56:48;99345.96;;;12.42;42.86
56689;BME280;42565;53.342;-1.534;2023-01-31T11:59:19;99343.31;;;12.52;43.17
56689;BME280;42565;53.342;-1.534;2023-01-31T12:01:49;99326.07;;;12.31;43.76
56689;BME280;42565;53.342;-1.534;2023-01-31T12:04:21;99331.23;;;12.93;43.17
56689;BME280;42565;53.342;-1.534;2023-01-31T12:07:00;99325.68;;;12.63;42.95
56689;BME280;42565;53.342;-1.534;2023-01-31T12:09:30;99326.77;;;12.04;45.26
56689;BME280;42565;53.342;-1.534;2023-01-31T12:12:21;99318.54;;;11.53;44.46
56689;BME280;42565;53.342;-1.534;2023-01-31T12:14:49;99306.57;;;11.55;44.99
56689;BME280;42565;53.342;-1.534;2023-01-31T12:17:17;99316.27;;;11.39;46.65
56689;BME280;42565;53.342;-1.534;2023-01-31T12:19:56;99300.78;;;11.14;47.69
56689;BME280;42565;53.342;-1.534;2023-01-31T12:22:30;99297.61;;;10.88;47.16
56689;BME280;42565;53.342;-1.534;2023-01-31T12:25:10;99298.46;;;10.41;47.58
56689;BME280;42565;53.342;-1.534;2023-01-31T12:27:51;99315.68;;;10.83;47.03
56689;BME280;42565;53.342;-1.534;2023-01-31T12:30:33;99312.85;;;10.61;48.95
56689;BME280;42565;53.342;-1.534;2023-01-31T12:33:17;99313.42;;;10.77;48.75
56689;BME280;42565;53.342;-1.534;2023-01-31T12:35:54;99316.21;;;10.19;49.48
56689;BME280;42565;53.342;-1.534;2023-01-31T12:38:37;99310.22;;;9.47;52.36
56689;BME280;42565;53.342;-1.534;2023-01-31T12:41:18;99317.23;;;10.30;51.87
56689;BME280;42565;53.342;-1.534;2023-01-31T12:44:00;99344.06;;;10.59;51.25
56689;BME280;42565;53.342;-1.534;2023-01-31T12:46:34;99335.31;;;9.63;52.88
56689;BME280;42565;53.342;-1.534;2023-01-31T12:49:33;99346.24;;;9.25;57.48
56689;BME280;42565;53.342;-1.534;2023-01-31T12:52:10;99369.88;;;9.44;60.63
56689;BME280;42565;53.342;-1.534;2023-01-31T12:54:52;99364.23;;;8.47;59.53
56689;BME280;42565;53.342;-1.534;2023-01-31T12:57:32;99345.25;;;7.65;62.55
56689;BME280;42565;53.342;-1.534;2023-01-31T13:00:12;99322.46;;;7.46;60.70
56689;BME280;42565;53.342;-1.534;2023-01-31T13:02:48;99330.09;;;7.91;58.79
56689;BME280;42565;53.342;-1.534;2023-01-31T13:05:26;99330.10;;;8.38;52.90
56689;BME280;42565;53.342;-1.534;2023-01-31T13:07:59;99333.67;;;8.34;51.78
56689;BME280;42565;53.342;-1.534;2023-01-31T13:10:35;99312.78;;;8.28;50.94
56689;BME280;42565;53.342;-1.534;2023-01-31T13:13:05;99334.39;;;8.39;50.54
56689;BME280;42565;53.342;-1.534;2023-01-31T13:15:41;99328.70;;;7.86;50.45
56689;BME280;42565;53.342;-1.534;2023-01-31T13:18:12;99309.64;;;8.69;50.24